Time;durP1;ratioP1;P1;durP2;ratioP2;P2;SDS_P1;SDS_P2;PMS_P1;PMS_P2;Temp;Humidity;BMP_temperature;BMP_pressure;BME280_temperature;BME280_humidity;BME280_pressure;Samples;Min_cycle;Max_cycle;Signal;HPM_P1;HPM_P2
2023/04/16 00:01:04;;;;;;;20.97;12.60;;;8.90;99.90;;;;;;5037450;28;20475;-81
2023/04/16 00:03:30;;;;;;;18.53;12.87;;;8.90;99.90;;;;;;5038139;28;20449;-82
2023/04/16 00:05:58;;;;;;;14.03;11.33;;;8.90;99.90;;;;;;5039158;28;20445;-81
2023/04/16 00:08:24;;;;;;;20.53;12.60;;;8.90;99.90;;;;;;5038531;28;20466;-81
2023/04/16 00:10:52;;;;;;;22.60;12.60;;;8.90;99.90;;;;;;5037388;28;20489;-81
2023/04/16 00:13:19;;;;;;;21.87;13.60;;;8.90;99.90;;;;;;5038592;28;20455;-81
2023/04/16 00:15:46;;;;;;;22.67;12.87;;;9.00;99.90;;;;;;5038721;28;20456;-79
2023/04/16 00:18:14;;;;;;;21.97;13.07;;;8.90;99.90;;;;;;5038150;28;21015;-80
2023/04/16 00:20:41;;;;;;;21.43;12.23;;;8.90;99.90;;;;;;5033790;28;20473;-80
2023/04/16 00:23:08;;;;;;;16.77;11.87;;;8.80;99.90;;;;;;5037742;28;20521;-80
2023/04/16 00:25:34;;;;;;;23.60;11.93;;;8.80;99.90;;;;;;5038161;28;20460;-80
2023/04/16 00:28:01;;;;;;;20.03;12.30;;;8.90;99.90;;;;;;5036816;28;20453;-80
2023/04/16 00:30:28;;;;;;;21.13;13.03;;;8.80;99.90;;;;;;5035342;28;20545;-79
2023/04/16 00:32:55;;;;;;;24.40;14.37;;;8.90;99.90;;;;;;5037176;28;20873;-80
2023/04/16 00:35:23;;;;;;;28.53;15.33;;;8.70;99.90;;;;;;5037112;28;20459;-81
2023/04/16 00:37:50;;;;;;;19.77;13.47;;;8.80;99.90;;;;;;5035858;28;20904;-81
2023/04/16 00:40:17;;;;;;;19.03;12.30;;;8.80;99.90;;;;;;5036539;28;20453;-80
2023/04/16 00:42:43;;;;;;;16.70;12.47;;;8.80;99.90;;;;;;5043109;28;20749;-80
2023/04/16 00:45:11;;;;;;;22.33;13.07;;;8.90;99.90;;;;;;5049549;28;20519;-80
2023/04/16 00:47:38;;;;;;;16.37;11.80;;;8.80;99.90;;;;;;5049595;28;20480;-80
2023/04/16 00:50:06;;;;;;;19.47;14.73;;;9.00;99.90;;;;;;5043604;28;20555;-81
2023/04/16 00:52:35;;;;;;;17.80;12.10;;;9.00;99.90;;;;;;5037545;28;20561;-81
2023/04/16 00:55:02;;;;;;;13.93;10.90;;;9.10;99.90;;;;;;5038198;28;20954;-81
2023/04/16 00:57:29;;;;;;;19.60;13.03;;;9.10;99.90;;;;;;5038524;28;20459;-82
2023/04/16 00:59:57;;;;;;;22.13;15.07;;;9.10;99.90;;;;;;5037601;28;20824;-81
2023/04/16 01:02:24;;;;;;;21.57;12.83;;;9.10;99.90;;;;;;5037109;28;20479;-82
2023/04/16 01:04:51;;;;;;;19.53;12.67;;;9.10;99.90;;;;;;5037257;28;21089;-83
2023/04/16 01:07:18;;;;;;;17.63;12.20;;;9.10;99.90;;;;;;5037612;28;20453;-81
2023/04/16 01:09:46;;;;;;;18.80;12.00;;;9.00;99.90;;;;;;5036830;28;20464;-81
2023/04/16 01:12:13;;;;;;;20.77;13.10;;;9.00;99.90;;;;;;5033636;28;20483;-80
2023/04/16 01:14:40;;;;;;;15.83;12.60;;;9.10;99.90;;;;;;5036482;28;20463;-82
2023/04/16 01:17:06;;;;;;;20.20;12.90;;;9.00;99.90;;;;;;5037738;28;20816;-81
2023/04/16 01:19:35;;;;;;;20.03;12.10;;;9.10;99.90;;;;;;5036910;28;21061;-82
2023/04/16 01:22:03;;;;;;;17.60;12.07;;;9.10;99.90;;;;;;5035481;28;20491;-81
2023/04/16 01:24:30;;;;;;;17.83;12.87;;;9.20;99.90;;;;;;5036485;28;20463;-80
2023/04/16 01:26:57;;;;;;;15.73;12.50;;;9.10;99.90;;;;;;5036276;28;20804;-81
2023/04/16 01:29:24;;;;;;;17.70;12.57;;;9.20;99.90;;;;;;5036085;28;20443;-80
2023/04/16 01:31:51;;;;;;;19.40;13.30;;;9.20;99.90;;;;;;5034267;28;20877;-80
2023/04/16 01:34:18;;;;;;;17.80;13.23;;;9.20;99.90;;;;;;5036381;28;20517;-81
2023/04/16 01:36:45;;;;;;;20.33;13.67;;;9.20;99.90;;;;;;5036500;28;20459;-81
2023/04/16 01:39:15;;;;;;;20.30;13.13;;;9.10;99.90;;;;;;5034531;28;20464;-81
2023/04/16 01:41:42;;;;;;;24.13;14.00;;;9.10;99.90;;;;;;5035427;28;20468;-80
2023/04/16 01:44:08;;;;;;;15.97;12.37;;;9.00;99.90;;;;;;5035972;28;20454;-81
2023/04/16 01:46:37;;;;;;;16.20;11.63;;;9.10;99.90;;;;;;5036299;28;20548;-81
2023/04/16 01:49:05;;;;;;;22.60;14.17;;;9.20;99.90;;;;;;5028433;28;20981;-80
2023/04/16 01:51:32;;;;;;;24.60;14.00;;;9.20;99.90;;;;;;5035352;28;20489;-80
2023/04/16 01:53:59;;;;;;;20.60;12.67;;;9.20;99.90;;;;;;5035397;28;20448;-81
2023/04/16 01:56:27;;;;;;;26.13;15.57;;;9.20;99.90;;;;;;5033944;28;20496;-80
2023/04/16 01:58:54;;;;;;;17.43;12.70;;;9.20;99.90;;;;;;5035330;28;20455;-79
2023/04/16 02:01:21;;;;;;;22.17;13.83;;;9.30;99.90;;;;;;5034512;28;20479;-81
2023/04/16 02:03:48;;;;;;;25.10;14.87;;;9.30;99.90;;;;;;5034951;28;20543;-78
2023/04/16 02:06:15;;;;;;;21.60;14.67;;;9.30;99.90;;;;;;5035710;28;20459;-80
2023/04/16 02:08:42;;;;;;;18.63;13.90;;;9.30;99.90;;;;;;5035502;28;20466;-81
2023/04/16 02:11:09;;;;;;;23.13;13.30;;;9.30;99.90;;;;;;5035772;28;20492;-82
2023/04/16 02:13:37;;;;;;;21.13;14.73;;;9.30;99.90;;;;;;5036818;28;20825;-81
2023/04/16 02:16:04;;;;;;;16.80;13.63;;;9.30;99.90;;;;;;5036048;28;20450;-81
2023/04/16 02:18:31;;;;;;;15.67;12.40;;;9.40;99.90;;;;;;5035442;28;20553;-81
2023/04/16 02:20:59;;;;;;;23.00;12.87;;;9.40;99.90;;;;;;5034553;28;20488;-82
2023/04/16 02:23:26;;;;;;;19.57;15.13;;;9.40;99.90;;;;;;5035942;28;20438;-80
2023/04/16 02:25:52;;;;;;;17.30;13.70;;;9.40;99.90;;;;;;5036153;28;20456;-82
2023/04/16 02:28:19;;;;;;;25.93;15.93;;;9.50;99.90;;;;;;5035653;28;20543;-82
2023/04/16 02:30:47;;;;;;;29.33;17.00;;;9.30;99.90;;;;;;5035472;28;21058;-80
2023/04/16 02:33:14;;;;;;;25.57;16.83;;;9.30;99.90;;;;;;5036279;28;20487;-81
2023/04/16 02:35:41;;;;;;;30.10;18.23;;;9.30;99.90;;;;;;5035708;28;20456;-80
2023/04/16 02:38:08;;;;;;;22.57;16.50;;;9.30;99.90;;;;;;5035042;28;20530;-80
2023/04/16 02:40:35;;;;;;;26.60;17.90;;;9.30;99.90;;;;;;5034937;28;20451;-79
2023/04/16 02:43:02;;;;;;;25.77;17.27;;;9.30;99.90;;;;;;5036313;28;20529;-80
2023/04/16 02:45:30;;;;;;;24.97;16.87;;;9.30;99.90;;;;;;5035818;28;20460;-81
2023/04/16 02:47:59;;;;;;;25.93;17.87;;;9.30;99.90;;;;;;5036299;28;20547;-80
2023/04/16 02:50:26;;;;;;;25.40;19.30;;;9.30;99.90;;;;;;5035648;28;20461;-81
2023/04/16 02:52:53;;;;;;;30.30;20.23;;;9.30;99.90;;;;;;5038771;28;20462;-81
2023/04/16 02:55:20;;;;;;;27.73;17.40;;;9.30;99.90;;;;;;5040195;28;20466;-82
2023/04/16 02:57:46;;;;;;;33.87;20.67;;;9.30;99.90;;;;;;5038828;28;20469;-81
2023/04/16 03:00:14;;;;;;;27.97;19.37;;;9.30;99.90;;;;;;5038892;28;20457;-80
2023/04/16 03:02:41;;;;;;;27.43;20.70;;;9.30;99.90;;;;;;5038967;28;20508;-80
2023/04/16 03:05:10;;;;;;;26.00;18.60;;;9.30;99.90;;;;;;5042912;28;20551;-81
2023/04/16 03:07:39;;;;;;;26.67;19.50;;;9.40;99.90;;;;;;5041880;28;20457;-81
2023/04/16 03:10:07;;;;;;;30.70;20.03;;;9.40;99.90;;;;;;5041822;28;20454;-80
2023/04/16 03:12:34;;;;;;;32.97;20.63;;;9.40;99.90;;;;;;5040366;28;20815;-80
2023/04/16 03:15:02;;;;;;;27.97;19.43;;;9.40;99.90;;;;;;5041166;28;20515;-80
2023/04/16 03:17:29;;;;;;;31.33;20.73;;;9.50;99.90;;;;;;5041715;28;20463;-82
2023/04/16 03:19:55;;;;;;;29.17;19.47;;;9.50;99.90;;;;;;5041629;28;20447;-81
2023/04/16 03:22:24;;;;;;;25.47;19.07;;;9.50;99.90;;;;;;5041643;28;20483;-81
2023/04/16 03:24:51;;;;;;;24.87;18.50;;;9.50;99.90;;;;;;5041583;28;20586;-82
2023/04/16 03:27:17;;;;;;;31.20;19.17;;;9.50;99.90;;;;;;5039466;28;20537;-80
2023/04/16 03:29:44;;;;;;;27.13;20.87;;;9.50;99.90;;;;;;5037867;28;20535;-81
2023/04/16 03:32:12;;;;;;;26.20;18.67;;;9.60;99.90;;;;;;5037633;28;20502;-80
2023/04/16 03:34:39;;;;;;;25.23;18.03;;;9.60;99.90;;;;;;5039075;28;20452;-80
2023/04/16 03:37:05;;;;;;;37.43;21.37;;;9.70;99.90;;;;;;5039029;28;20459;-80
2023/04/16 03:39:34;;;;;;;24.13;18.00;;;9.60;99.90;;;;;;5037906;28;20515;-82
2023/04/16 03:42:02;;;;;;;26.47;18.93;;;9.70;99.90;;;;;;5038019;28;20570;-80
2023/04/16 03:44:29;;;;;;;29.73;19.63;;;9.70;99.90;;;;;;5037063;28;20459;-80
2023/04/16 03:46:56;;;;;;;27.03;17.97;;;9.70;99.90;;;;;;5036268;28;20451;-80
2023/04/16 03:49:23;;;;;;;22.33;16.40;;;9.70;99.90;;;;;;5036571;28;20896;-80
2023/04/16 03:51:50;;;;;;;25.67;17.43;;;9.80;99.90;;;;;;5036306;28;21142;-80
2023/04/16 03:54:17;;;;;;;24.27;17.43;;;9.80;99.90;;;;;;5037228;28;20502;-80
2023/04/16 03:56:45;;;;;;;26.73;18.47;;;9.70;99.90;;;;;;5037468;28;20457;-81
2023/04/16 03:59:12;;;;;;;25.80;18.13;;;9.70;99.90;;;;;;5036814;28;20459;-79
2023/04/16 04:01:38;;;;;;;27.40;18.10;;;9.80;99.90;;;;;;5035577;28;20487;-80
2023/04/16 04:04:05;;;;;;;27.23;18.10;;;9.70;99.90;;;;;;5037282;28;20464;-81
2023/04/16 04:06:32;;;;;;;25.43;17.10;;;9.70;99.90;;;;;;5037490;28;20989;-80
2023/04/16 04:08:59;;;;;;;29.80;18.77;;;9.80;99.90;;;;;;5037913;28;20463;-82
2023/04/16 04:11:26;;;;;;;25.70;16.40;;;9.70;99.90;;;;;;5036879;28;20497;-81
2023/04/16 04:13:54;;;;;;;31.27;18.70;;;9.80;99.90;;;;;;5039578;28;20546;-81
2023/04/16 04:16:21;;;;;;;27.67;18.13;;;9.70;99.90;;;;;;5047264;28;20448;-81
2023/04/16 04:18:49;;;;;;;30.43;19.20;;;9.70;99.90;;;;;;5042104;28;20519;-78
2023/04/16 04:21:22;;;;;;;28.70;19.03;;;9.60;99.90;;;;;;5048230;28;20515;-81
2023/04/16 04:23:55;;;;;;;31.97;18.90;;;9.60;99.90;;;;;;5046737;28;20460;-79
2023/04/16 04:26:22;;;;;;;30.67;20.20;;;9.70;99.90;;;;;;5045279;28;20439;-81
2023/04/16 04:28:52;;;;;;;30.33;20.30;;;9.70;99.90;;;;;;5047944;28;20459;-79
2023/04/16 04:31:21;;;;;;;30.27;19.87;;;9.70;99.90;;;;;;5045105;28;20512;-80
2023/04/16 04:33:47;;;;;;;30.40;18.93;;;9.70;99.90;;;;;;5044771;28;20460;-82
2023/04/16 04:36:16;;;;;;;33.63;20.27;;;9.70;99.90;;;;;;5042775;28;20824;-79
2023/04/16 04:38:43;;;;;;;32.03;20.67;;;9.70;99.90;;;;;;5042039;28;20466;-80
2023/04/16 04:41:11;;;;;;;32.43;21.70;;;9.80;99.90;;;;;;5041817;28;20528;-80
2023/04/16 04:44:06;;;;;;;36.03;21.30;;;9.80;99.90;;;;;;5042770;28;20482;-79
2023/04/16 04:46:34;;;;;;;30.63;20.10;;;9.80;99.90;;;;;;5041329;28;20494;-79
2023/04/16 04:49:12;;;;;;;28.40;18.90;;;9.80;99.90;;;;;;5044679;28;20461;-82
2023/04/16 04:51:39;;;;;;;38.40;21.63;;;9.80;99.90;;;;;;5041557;28;21051;-79
2023/04/16 04:54:06;;;;;;;32.27;19.90;;;9.80;99.90;;;;;;5046958;28;20447;-80
2023/04/16 04:56:33;;;;;;;31.80;19.00;;;9.80;99.90;;;;;;5043876;28;20465;-80
2023/04/16 04:59:01;;;;;;;30.20;20.07;;;9.80;99.90;;;;;;5045055;28;20460;-81
2023/04/16 05:01:31;;;;;;;31.87;20.23;;;9.80;99.90;;;;;;5046658;28;20502;-82
2023/04/16 05:04:02;;;;;;;31.23;19.93;;;9.80;99.90;;;;;;5048323;28;20453;-82
2023/04/16 05:06:35;;;;;;;28.10;20.83;;;9.90;99.90;;;;;;5050095;28;20439;-81
2023/04/16 05:09:11;;;;;;;30.70;21.40;;;10.00;99.90;;;;;;5046208;28;20522;-79
2023/04/16 05:11:39;;;;;;;33.77;22.47;;;9.90;99.90;;;;;;5046539;28;20520;-82
2023/04/16 05:17:25;;;;;;;28.63;21.00;;;10.00;99.90;;;;;;5028428;28;20505;-83
2023/04/16 05:19:53;;;;;;;31.13;21.07;;;9.90;99.90;;;;;;5025596;28;20459;-80
2023/04/16 05:22:20;;;;;;;31.47;22.40;;;9.90;99.90;;;;;;5037494;28;20489;-80
2023/04/16 05:24:47;;;;;;;34.37;22.63;;;9.90;99.90;;;;;;5036549;28;20452;-80
2023/04/16 05:27:14;;;;;;;34.57;22.33;;;9.90;99.90;;;;;;5036749;28;20459;-81
2023/04/16 05:29:41;;;;;;;30.73;21.60;;;9.90;99.90;;;;;;5036355;28;20854;-82
2023/04/16 05:32:08;;;;;;;29.63;20.37;;;10.00;99.90;;;;;;5035351;28;20514;-82
2023/04/16 05:34:35;;;;;;;29.57;20.67;;;10.00;99.90;;;;;;5036297;28;20458;-81
2023/04/16 05:37:03;;;;;;;33.97;22.17;;;9.90;99.90;;;;;;5036173;28;20473;-80
2023/04/16 05:39:29;;;;;;;33.70;22.17;;;9.90;99.90;;;;;;5036513;28;20461;-81
2023/04/16 05:41:56;;;;;;;31.80;19.03;;;9.90;99.90;;;;;;5035419;28;20540;-83
2023/04/16 05:44:27;;;;;;;33.27;21.10;;;10.00;99.90;;;;;;5037879;28;20477;-81
2023/04/16 05:47:12;;;;;;;33.00;19.97;;;10.00;99.90;;;;;;5051466;28;20459;-83
2023/04/16 05:49:39;;;;;;;28.77;18.77;;;10.00;99.90;;;;;;5053369;28;20440;-83
2023/04/16 05:52:08;;;;;;;35.23;23.10;;;10.00;99.90;;;;;;5050387;28;20524;-82
2023/04/16 05:54:35;;;;;;;32.17;20.97;;;10.00;99.90;;;;;;5051616;28;20504;-83
2023/04/16 05:57:03;;;;;;;35.70;22.50;;;9.90;99.90;;;;;;5051933;28;20440;-83
2023/04/16 05:59:31;;;;;;;31.00;23.33;;;9.90;99.90;;;;;;5053300;28;20550;-83
2023/04/16 06:04:43;;;;;;;37.77;20.50;;;10.00;99.90;;;;;;5042739;28;20442;-82
2023/04/16 06:07:31;;;;;;;33.13;20.77;;;10.00;99.90;;;;;;5053810;28;20496;-84
2023/04/16 06:10:07;;;;;;;40.33;22.33;;;10.00;99.90;;;;;;5054171;28;20436;-84
2023/04/16 06:12:52;;;;;;;25.40;18.80;;;10.10;99.90;;;;;;5051497;28;20492;-85
2023/04/16 06:15:20;;;;;;;37.13;22.07;;;10.10;99.90;;;;;;5050394;28;20947;-82
2023/04/16 06:17:50;;;;;;;36.23;21.87;;;10.00;99.90;;;;;;5051537;28;20440;-82
2023/04/16 06:20:22;;;;;;;34.13;20.30;;;10.00;99.90;;;;;;5050540;28;20799;-83
2023/04/16 06:22:52;;;;;;;31.97;20.90;;;10.10;99.90;;;;;;5049862;28;20480;-83
2023/04/16 06:25:22;;;;;;;33.83;20.97;;;10.20;99.90;;;;;;5050658;28;20487;-83
2023/04/16 06:27:49;;;;;;;29.07;21.70;;;10.10;99.90;;;;;;5052760;28;20525;-83
2023/04/16 06:30:16;;;;;;;32.97;22.03;;;10.10;99.90;;;;;;5043480;28;20462;-83
2023/04/16 06:32:43;;;;;;;32.17;20.47;;;10.10;99.90;;;;;;5039911;28;21098;-84
2023/04/16 06:37:53;;;;;;;30.83;21.20;;;10.40;99.90;;;;;;5033522;28;20452;-82
2023/04/16 06:40:19;;;;;;;33.77;21.23;;;10.40;99.90;;;;;;5039272;28;20821;-82
2023/04/16 06:42:46;;;;;;;33.10;20.17;;;10.60;99.90;;;;;;5038217;28;20464;-82
2023/04/16 06:45:13;;;;;;;30.50;21.67;;;10.80;99.90;;;;;;5042567;28;20448;-85
2023/04/16 06:47:40;;;;;;;32.10;22.50;;;10.90;99.90;;;;;;5046735;28;20462;-81
2023/04/16 06:50:08;;;;;;;32.00;22.33;;;10.90;99.90;;;;;;5033652;28;20491;-80
2023/04/16 06:52:35;;;;;;;34.10;22.93;;;10.70;99.90;;;;;;5036511;28;20491;-81
2023/04/16 06:55:03;;;;;;;30.57;21.33;;;10.70;99.90;;;;;;5022991;28;20483;-80
2023/04/16 06:57:30;;;;;;;30.20;19.63;;;10.70;99.90;;;;;;5038275;28;20951;-80
2023/04/16 06:59:57;;;;;;;28.90;20.00;;;10.70;99.90;;;;;;5039351;28;20543;-81
2023/04/16 07:02:24;;;;;;;29.00;22.77;;;10.70;99.90;;;;;;5038513;28;20469;-79
2023/04/16 07:04:53;;;;;;;30.40;20.80;;;10.70;99.90;;;;;;5035051;28;20500;-82
2023/04/16 07:07:20;;;;;;;28.30;21.73;;;10.70;99.90;;;;;;5036907;28;20475;-80
2023/04/16 07:09:46;;;;;;;33.87;22.73;;;10.70;99.90;;;;;;5036822;28;20466;-80
2023/04/16 07:12:15;;;;;;;29.30;21.10;;;10.70;99.90;;;;;;5037619;28;20988;-81
2023/04/16 07:14:42;;;;;;;30.27;21.43;;;10.70;99.90;;;;;;5035769;28;20457;-83
2023/04/16 07:17:08;;;;;;;32.47;23.13;;;10.70;99.90;;;;;;5035008;28;20462;-83
2023/04/16 07:19:35;;;;;;;30.20;20.57;;;10.60;99.90;;;;;;5042619;28;20465;-82
2023/04/16 07:22:02;;;;;;;29.03;20.67;;;10.60;99.90;;;;;;5035723;28;20495;-83
2023/04/16 07:24:30;;;;;;;31.00;22.83;;;10.70;99.90;;;;;;5038185;28;20452;-82
2023/04/16 07:26:56;;;;;;;28.60;21.10;;;10.70;99.90;;;;;;5036995;28;21102;-83
2023/04/16 07:29:25;;;;;;;25.83;20.03;;;10.80;99.90;;;;;;5035943;28;20467;-82
2023/04/16 07:31:51;;;;;;;31.57;20.90;;;10.90;99.90;;;;;;5034236;28;20483;-81
2023/04/16 07:34:18;;;;;;;34.30;22.60;;;11.00;99.90;;;;;;5036883;28;20453;-81
2023/04/16 07:36:45;;;;;;;31.60;21.00;;;11.10;99.90;;;;;;5036256;28;20454;-82
2023/04/16 07:39:12;;;;;;;33.07;22.70;;;11.00;99.90;;;;;;5036325;28;20457;-80
2023/04/16 07:41:40;;;;;;;27.97;21.90;;;11.00;99.90;;;;;;5034828;28;20484;-80
2023/04/16 07:44:07;;;;;;;28.73;20.17;;;10.90;99.90;;;;;;5036369;28;20949;-82
2023/04/16 07:46:35;;;;;;;24.30;19.20;;;11.00;99.90;;;;;;5036186;28;20468;-82
2023/04/16 07:49:02;;;;;;;32.90;22.40;;;11.20;99.90;;;;;;5036173;28;20536;-81
2023/04/16 07:51:28;;;;;;;30.83;21.53;;;11.30;99.90;;;;;;5034994;28;20935;-82
2023/04/16 07:53:55;;;;;;;28.30;19.77;;;11.50;99.90;;;;;;5036522;28;20552;-84
2023/04/16 07:56:22;;;;;;;25.87;19.63;;;11.60;99.90;;;;;;5035726;28;20970;-81
2023/04/16 07:58:49;;;;;;;25.13;18.73;;;11.70;90.30;;;;;;5035166;28;20466;-81
2023/04/16 08:01:16;;;;;;;29.83;19.73;;;11.80;55.80;;;;;;5034998;28;20532;-81
2023/04/16 08:03:44;;;;;;;25.43;21.03;;;11.80;68.70;;;;;;5036113;28;20450;-81
2023/04/16 08:06:11;;;;;;;23.20;19.50;;;11.60;4.20;;;;;;5034980;28;20465;-82
2023/04/16 08:08:38;;;;;;;24.33;18.17;;;11.50;41.30;;;;;;5030625;28;20528;-81
2023/04/16 08:11:04;;;;;;;27.80;19.27;;;11.60;48.60;;;;;;5027235;28;20478;-82
2023/04/16 08:13:31;;;;;;;26.17;19.30;;;11.80;63.50;;;;;;5028397;28;20490;-84
2023/04/16 08:15:58;;;;;;;28.03;19.70;;;11.90;48.80;;;;;;5038078;28;20994;-80
2023/04/16 08:18:25;;;;;;;26.40;18.07;;;11.90;31.70;;;;;;5042799;28;20551;-79
2023/04/16 08:20:54;;;;;;;26.30;17.80;;;11.90;30.30;;;;;;5041795;28;20481;-82
2023/04/16 08:23:21;;;;;;;21.90;18.20;;;11.80;1.00;;;;;;5044979;28;20489;-83
2023/04/16 08:25:48;;;;;;;25.03;18.87;;;11.60;1.00;;;;;;5037685;28;20548;-81
2023/04/16 08:28:17;;;;;;;23.93;18.03;;;11.60;1.80;;;;;;5038320;28;20467;-82
2023/04/16 08:30:44;;;;;;;23.50;19.13;;;11.80;9.90;;;;;;5036921;28;20456;-83
2023/04/16 08:33:12;;;;;;;22.03;16.87;;;11.70;1.00;;;;;;5044031;28;20489;-82
2023/04/16 08:35:39;;;;;;;23.43;17.60;;;11.80;1.00;;;;;;5037854;28;20459;-82
2023/04/16 08:38:08;;;;;;;23.60;18.93;;;11.80;1.00;;;;;;5036402;28;20568;-82
2023/04/16 08:40:38;;;;;;;30.50;19.57;;;11.80;1.00;;;;;;5016463;28;20522;-80
2023/04/16 08:43:09;;;;;;;22.30;17.87;;;12.00;1.00;;;;;;5033357;28;20449;-81
2023/04/16 08:45:38;;;;;;;24.73;18.53;;;11.80;1.00;;;;;;5036440;28;20877;-82
2023/04/16 08:48:06;;;;;;;24.40;17.70;;;12.10;1.00;;;;;;5047129;28;20483;-79
2023/04/16 08:50:34;;;;;;;23.40;16.63;;;12.30;1.00;;;;;;5043815;28;20478;-80
2023/04/16 08:53:10;;;;;;;20.90;17.20;;;12.40;1.00;;;;;;5029969;28;21027;-82
2023/04/16 08:55:40;;;;;;;20.83;16.93;;;12.50;1.00;;;;;;5033791;28;20455;-80
2023/04/16 08:58:13;;;;;;;23.67;17.87;;;12.50;1.00;;;;;;5034394;28;20503;-81
2023/04/16 09:00:40;;;;;;;20.70;15.60;;;12.40;1.00;;;;;;5034473;28;20524;-81
2023/04/16 09:03:08;;;;;;;20.17;16.10;;;12.40;1.00;;;;;;5033583;28;20482;-80
2023/04/16 09:05:35;;;;;;;23.30;17.23;;;12.40;1.00;;;;;;5034578;28;20938;-81
2023/04/16 09:08:02;;;;;;;22.23;16.87;;;12.40;1.00;;;;;;5034095;28;20458;-81
2023/04/16 09:10:31;;;;;;;20.43;16.97;;;12.30;1.00;;;;;;5034424;28;20517;-81
2023/04/16 09:12:58;;;;;;;25.23;18.33;;;12.50;1.00;;;;;;5022610;28;20849;-81
2023/04/16 09:15:25;;;;;;;21.73;17.47;;;12.30;1.00;;;;;;5035220;28;20469;-80
2023/04/16 09:17:52;;;;;;;22.03;17.67;;;12.30;1.00;;;;;;5034062;28;20446;-80
2023/04/16 09:20:19;;;;;;;22.93;17.20;;;12.40;1.00;;;;;;5034924;28;20455;-81
2023/04/16 09:22:47;;;;;;;23.00;17.57;;;12.50;1.00;;;;;;5032333;28;20510;-80
2023/04/16 09:25:15;;;;;;;26.00;18.77;;;12.40;1.00;;;;;;5034212;28;20461;-81
2023/04/16 09:27:43;;;;;;;19.27;14.63;;;12.50;1.00;;;;;;5033554;28;20463;-80
2023/04/16 09:30:21;;;;;;;24.67;20.37;;;12.50;1.00;;;;;;5031840;28;20535;-81
2023/04/16 09:32:49;;;;;;;22.27;18.07;;;12.30;1.00;;;;;;5022531;28;20492;-81
2023/04/16 09:35:17;;;;;;;28.50;18.53;;;12.00;1.00;;;;;;5031429;28;20547;-81
2023/04/16 09:37:44;;;;;;;22.13;17.27;;;12.00;1.00;;;;;;5033687;28;20545;-79
2023/04/16 09:40:11;;;;;;;22.87;17.43;;;12.20;1.00;;;;;;5034792;28;21003;-81
2023/04/16 09:42:38;;;;;;;21.47;16.97;;;12.30;1.00;;;;;;5033159;28;20484;-80
2023/04/16 09:45:07;;;;;;;26.23;18.13;;;12.40;1.00;;;;;;5033668;28;20449;-80
2023/04/16 09:47:41;;;;;;;20.17;17.67;;;12.40;1.00;;;;;;5017655;28;20495;-79
2023/04/16 09:50:10;;;;;;;21.70;16.87;;;12.50;1.00;;;;;;5025170;28;20460;-79
2023/04/16 09:52:38;;;;;;;22.40;18.30;;;12.50;1.00;;;;;;5031940;28;20520;-80
2023/04/16 09:55:05;;;;;;;23.90;17.03;;;12.60;1.00;;;;;;5046934;28;20480;-79
2023/04/16 09:57:32;;;;;;;25.30;18.53;;;12.60;1.00;;;;;;5047940;28;20472;-81
2023/04/16 10:00:03;;;;;;;23.20;18.37;;;12.50;1.00;;;;;;5047894;28;20541;-82
2023/04/16 10:02:32;;;;;;;20.63;17.07;;;12.50;1.00;;;;;;5051649;28;20481;-80
2023/04/16 10:05:01;;;;;;;17.70;15.47;;;12.50;1.00;;;;;;5052634;28;20460;-81
2023/04/16 10:07:29;;;;;;;21.77;16.93;;;12.70;1.00;;;;;;5052101;28;20542;-79
2023/04/16 10:09:57;;;;;;;20.90;16.47;;;12.70;1.00;;;;;;5048495;28;20459;-80
2023/04/16 10:12:24;;;;;;;19.73;17.63;;;12.80;1.00;;;;;;5054713;28;20924;-78
2023/04/16 10:14:51;;;;;;;20.20;16.73;;;12.70;1.00;;;;;;5050333;28;20483;-79
2023/04/16 10:17:19;;;;;;;23.73;17.43;;;12.90;1.00;;;;;;5038220;28;20455;-79
2023/04/16 10:19:47;;;;;;;23.33;18.70;;;12.80;1.00;;;;;;5036803;28;20551;-80
2023/04/16 10:22:14;;;;;;;18.27;15.63;;;13.00;1.00;;;;;;5039240;28;20494;-81
2023/04/16 10:24:41;;;;;;;22.87;17.67;;;13.30;1.00;;;;;;5041195;28;20448;-82
2023/04/16 10:27:08;;;;;;;20.40;16.87;;;13.70;99.90;;;;;;5041651;28;20456;-81
2023/04/16 10:29:35;;;;;;;21.80;17.70;;;14.40;99.90;;;;;;5040735;28;20460;-82
2023/04/16 10:32:02;;;;;;;18.23;15.87;;;14.40;99.90;;;;;;5039766;28;20478;-81
2023/04/16 10:34:31;;;;;;;21.87;15.77;;;14.80;1.00;;;;;;5039684;28;20508;-83
2023/04/16 10:36:59;;;;;;;20.17;16.80;;;14.80;99.90;;;;;;5038520;28;20451;-82
2023/04/16 10:39:28;;;;;;;21.47;17.60;;;14.80;99.90;;;;;;5036157;28;20517;-82
2023/04/16 10:42:08;;;;;;;20.13;16.53;;;15.00;99.90;;;;;;5034508;28;20471;-82
2023/04/16 10:44:35;;;;;;;18.23;16.30;;;15.20;1.00;;;;;;5035038;28;20443;-82
2023/04/16 10:47:02;;;;;;;20.03;15.00;;;15.40;99.90;;;;;;5041275;28;20479;-82
2023/04/16 10:49:29;;;;;;;20.13;17.00;;;15.30;1.00;;;;;;5042778;28;21078;-83
2023/04/16 10:51:57;;;;;;;17.83;14.90;;;15.10;99.90;;;;;;5041459;28;20576;-82
2023/04/16 10:54:27;;;;;;;18.73;15.13;;;15.60;1.00;;;;;;5041996;28;21018;-83
2023/04/16 10:56:56;;;;;;;17.73;15.07;;;15.50;99.90;;;;;;5039399;28;20456;-82
2023/04/16 10:59:23;;;;;;;19.23;15.57;;;15.30;97.60;;;;;;5041332;28;20901;-82
2023/04/16 11:01:52;;;;;;;20.10;16.07;;;15.60;99.90;;;;;;5040149;28;20494;-82
2023/04/16 11:04:43;;;;;;;20.63;16.70;;;15.70;99.90;;;;;;5041359;28;20532;-81
2023/04/16 11:07:17;;;;;;;18.00;15.50;;;16.00;99.90;;;;;;5021806;28;20986;-82
2023/04/16 11:10:04;;;;;;;16.00;14.30;;;16.80;29.30;;;;;;5041746;28;20437;-82
2023/04/16 11:12:34;;;;;;;16.37;14.67;;;17.40;99.90;;;;;;5024805;28;20475;-83
2023/04/16 11:15:02;;;;;;;15.70;13.93;;;18.40;49.20;;;;;;5041537;28;20983;-81
2023/04/16 11:17:32;;;;;;;16.83;15.13;;;18.30;1.00;;;;;;5039638;28;20966;-82
2023/04/16 11:19:59;;;;;;;17.93;15.80;;;17.20;1.00;;;;;;5031621;28;20452;-82
2023/04/16 11:22:26;;;;;;;17.33;15.17;;;16.40;99.90;;;;;;5038873;28;20579;-82
2023/04/16 11:24:57;;;;;;;15.50;13.90;;;15.90;99.90;;;;;;5023341;28;20450;-82
2023/04/16 11:27:25;;;;;;;16.93;14.83;;;15.50;99.90;;;;;;5037927;28;20512;-80
2023/04/16 11:29:59;;;;;;;16.47;14.57;;;15.20;1.00;;;;;;5036024;28;20828;-82
2023/04/16 11:32:26;;;;;;;16.93;14.63;;;14.70;1.00;;;;;;5036041;28;20477;-81
2023/04/16 11:34:53;;;;;;;17.43;13.40;;;14.80;99.90;;;;;;5034331;28;20856;-81
2023/04/16 11:37:21;;;;;;;18.67;15.03;;;14.90;99.90;;;;;;5036724;28;21027;-82
2023/04/16 11:39:52;;;;;;;16.40;13.20;;;15.10;1.00;;;;;;5037745;28;20802;-82
2023/04/16 11:42:23;;;;;;;16.03;13.80;;;15.30;99.90;;;;;;5037093;28;20465;-82
2023/04/16 11:44:54;;;;;;;18.70;14.50;;;15.20;99.90;;;;;;5037290;28;20456;-81
2023/04/16 11:47:22;;;;;;;16.17;14.00;;;15.20;99.90;;;;;;5036837;28;20891;-81
2023/04/16 11:49:49;;;;;;;19.07;14.63;;;15.00;99.90;;;;;;5036069;28;20518;-81
2023/04/16 11:52:27;;;;;;;16.57;14.50;;;14.60;99.90;;;;;;5035661;28;20476;-82
2023/04/16 11:54:54;;;;;;;18.33;15.83;;;14.30;1.00;;;;;;5035261;28;20478;-82
2023/04/16 11:57:26;;;;;;;18.07;15.90;;;13.80;99.90;;;;;;5036979;28;20509;-81
2023/04/16 11:59:53;;;;;;;18.57;14.03;;;13.60;99.90;;;;;;5035830;28;20448;-81
2023/04/16 12:02:35;;;;;;;17.90;14.37;;;13.60;77.60;;;;;;5035341;28;21014;-81
2023/04/16 12:05:02;;;;;;;17.47;14.67;;;13.70;1.00;;;;;;5033192;28;20455;-81
2023/04/16 12:07:29;;;;;;;17.03;14.13;;;14.10;99.90;;;;;;5034962;28;20575;-83
2023/04/16 12:10:06;;;;;;;18.17;14.27;;;14.70;99.90;;;;;;5035665;28;20458;-82
2023/04/16 12:12:35;;;;;;;19.20;15.40;;;15.30;99.90;;;;;;5023045;28;20472;-82
2023/04/16 12:15:03;;;;;;;15.47;13.53;;;15.40;1.00;;;;;;5029000;28;21014;-81
2023/04/16 12:17:30;;;;;;;14.70;13.20;;;15.60;1.00;;;;;;5031932;28;20448;-82
2023/04/16 12:19:58;;;;;;;17.90;13.90;;;15.80;99.90;;;;;;5026623;28;20464;-83
2023/04/16 12:22:30;;;;;;;16.63;14.20;;;15.70;99.90;;;;;;5028408;28;20486;-82
2023/04/16 12:24:59;;;;;;;15.77;13.87;;;15.30;99.90;;;;;;5030112;28;20543;-82
2023/04/16 12:27:27;;;;;;;17.07;15.10;;;14.90;1.00;;;;;;5032491;28;20526;-81
2023/04/16 12:30:06;;;;;;;19.93;15.60;;;14.90;1.00;;;;;;5035526;28;20470;-83
2023/04/16 12:32:33;;;;;;;18.77;15.40;;;14.50;1.00;;;;;;5035600;28;20465;-82
2023/04/16 12:35:00;;;;;;;18.50;15.90;;;14.40;1.00;;;;;;5035850;28;20489;-81
2023/04/16 12:37:27;;;;;;;17.07;14.40;;;14.40;99.90;;;;;;5036373;28;20966;-82
2023/04/16 12:39:54;;;;;;;15.90;13.83;;;14.30;1.00;;;;;;5035665;28;20461;-83
2023/04/16 12:42:21;;;;;;;17.47;13.87;;;14.70;99.90;;;;;;5034440;28;20482;-82
2023/04/16 12:44:48;;;;;;;17.20;15.40;;;15.40;1.00;;;;;;5035633;28;20447;-80
2023/04/16 12:47:16;;;;;;;18.13;13.97;;;16.20;1.00;;;;;;5019469;28;20467;-82